createdAt,value
2017-12-13T00:00:08.783Z,0
2017-12-13T00:00:51.374Z,0
2017-12-13T00:01:32.049Z,0
2017-12-13T00:02:12.770Z,0
2017-12-13T00:02:53.248Z,0
2017-12-13T00:03:33.784Z,0
2017-12-13T00:04:14.516Z,0
2017-12-13T00:04:55.078Z,0
2017-12-13T00:05:36.410Z,0
2017-12-13T00:06:20.108Z,0
2017-12-13T00:07:00.690Z,0
2017-12-13T00:07:41.596Z,0
2017-12-13T00:08:21.925Z,0
2017-12-13T00:09:05.510Z,0
2017-12-13T00:09:50.637Z,0
2017-12-13T00:10:31.243Z,0
2017-12-13T00:11:11.875Z,0
2017-12-13T00:11:52.392Z,0
2017-12-13T00:12:33.015Z,0
2017-12-13T00:13:13.700Z,0
2017-12-13T00:13:54.242Z,0
2017-12-13T00:14:34.774Z,0
2017-12-13T00:15:15.476Z,0
2017-12-13T00:15:56.668Z,0
2017-12-13T00:16:36.474Z,0
2017-12-13T00:17:17.019Z,0
2017-12-13T00:17:57.599Z,0
2017-12-13T00:18:38.231Z,0
2017-12-13T00:19:19.416Z,0
2017-12-13T00:20:00.081Z,0
2017-12-13T00:20:40.672Z,0
2017-12-13T00:21:21.206Z,0
2017-12-13T00:22:01.879Z,0
2017-12-13T00:22:42.447Z,0
2017-12-13T00:23:23.091Z,0
2017-12-13T00:24:03.754Z,0
2017-12-13T00:24:44.178Z,0
2017-12-13T00:25:27.901Z,0
2017-12-13T00:26:08.482Z,0
2017-12-13T00:26:49.092Z,0
2017-12-13T00:27:29.673Z,0
2017-12-13T00:28:10.242Z,0
2017-12-13T00:28:53.871Z,0
2017-12-13T00:29:32.617Z,0
2017-12-13T00:30:15.716Z,0
2017-12-13T00:30:56.318Z,0
2017-12-13T00:31:36.855Z,0
2017-12-13T00:32:17.439Z,0
2017-12-13T00:33:01.376Z,0
2017-12-13T00:33:41.870Z,0
2017-12-13T00:34:22.400Z,0
2017-12-13T00:35:03.033Z,0
2017-12-13T00:35:43.510Z,0
2017-12-13T00:36:24.200Z,0
2017-12-13T00:37:04.652Z,0
2017-12-13T00:37:45.549Z,0
2017-12-13T00:38:26.179Z,0
2017-12-13T00:39:06.752Z,0
2017-12-13T00:39:47.339Z,0
2017-12-13T00:40:27.839Z,0
2017-12-13T00:41:08.443Z,0
2017-12-13T00:41:49.073Z,0
2017-12-13T00:42:31.253Z,0
2017-12-13T00:43:11.787Z,0
2017-12-13T00:43:52.373Z,0
2017-12-13T00:44:33.532Z,0
2017-12-13T00:45:16.983Z,0
2017-12-13T00:45:57.634Z,0
2017-12-13T00:46:38.142Z,0
2017-12-13T00:47:18.759Z,0
2017-12-13T00:48:02.484Z,0
2017-12-13T00:48:43.283Z,0
2017-12-13T00:49:23.904Z,0
2017-12-13T00:50:04.534Z,0
2017-12-13T00:50:45.156Z,0
2017-12-13T00:51:25.675Z,0
2017-12-13T00:52:08.689Z,0
2017-12-13T00:52:49.255Z,0
2017-12-13T00:53:29.963Z,0
2017-12-13T00:54:12.250Z,0
2017-12-13T00:54:52.787Z,0
2017-12-13T00:55:33.500Z,0
2017-12-13T00:56:14.105Z,0
2017-12-13T00:56:54.526Z,0
2017-12-13T00:57:35.220Z,0
2017-12-13T00:58:15.785Z,0
2017-12-13T00:58:56.296Z,0
2017-12-13T00:59:37.010Z,0
2017-12-13T01:00:17.549Z,0
2017-12-13T01:00:58.097Z,0
2017-12-13T01:01:40.348Z,0
2017-12-13T01:02:20.958Z,0
2017-12-13T01:03:01.582Z,0
2017-12-13T01:03:43.704Z,0
2017-12-13T01:04:25.965Z,0
2017-12-13T01:05:06.608Z,0
2017-12-13T01:05:47.062Z,0
2017-12-13T01:06:27.675Z,0
2017-12-13T01:07:11.830Z,0
2017-12-13T01:07:52.627Z,0
2017-12-13T01:08:33.140Z,0
2017-12-13T01:09:13.646Z,0
2017-12-13T01:09:54.271Z,0
2017-12-13T01:10:34.742Z,0
2017-12-13T01:11:18.656Z,0
2017-12-13T01:11:59.207Z,0
2017-12-13T01:12:39.934Z,0
2017-12-13T01:13:20.542Z,0
2017-12-13T01:14:01.092Z,0
2017-12-13T01:14:41.648Z,0
2017-12-13T01:15:22.225Z,0
2017-12-13T01:16:02.846Z,0
2017-12-13T01:16:43.420Z,0
2017-12-13T01:17:23.906Z,0
2017-12-13T01:18:04.549Z,0
2017-12-13T01:18:45.176Z,0
2017-12-13T01:19:28.207Z,0
2017-12-13T01:20:08.768Z,0
2017-12-13T01:20:51.647Z,0
2017-12-13T01:21:32.672Z,0
2017-12-13T01:22:13.076Z,0
2017-12-13T01:22:53.742Z,0
2017-12-13T01:23:38.519Z,0
2017-12-13T01:24:19.047Z,0
2017-12-13T01:24:59.607Z,0
2017-12-13T01:25:40.276Z,0
2017-12-13T01:26:24.133Z,0
2017-12-13T01:27:04.654Z,0
2017-12-13T01:27:45.174Z,0
2017-12-13T01:28:25.842Z,0
2017-12-13T01:29:06.519Z,0
2017-12-13T01:29:47.024Z,0
2017-12-13T01:30:27.744Z,0
2017-12-13T01:31:08.282Z,0
2017-12-13T01:31:48.746Z,0
2017-12-13T01:32:29.387Z,0
2017-12-13T01:33:10.006Z,0
2017-12-13T01:33:50.579Z,0
2017-12-13T01:34:31.160Z,0
2017-12-13T01:35:11.868Z,0
2017-12-13T01:35:52.434Z,0
2017-12-13T01:36:35.937Z,0
2017-12-13T01:37:16.413Z,0
2017-12-13T01:37:58.232Z,0
2017-12-13T01:38:38.725Z,0
2017-12-13T01:39:19.272Z,0
2017-12-13T01:39:59.915Z,0
2017-12-13T01:40:43.059Z,0
2017-12-13T01:41:24.343Z,0
2017-12-13T01:42:04.868Z,0
2017-12-13T01:42:45.460Z,0
2017-12-13T01:43:26.133Z,0
2017-12-13T01:44:06.657Z,0
2017-12-13T01:44:47.208Z,0
2017-12-13T01:45:31.047Z,0
2017-12-13T01:46:11.628Z,0
2017-12-13T01:46:52.129Z,0
2017-12-13T01:47:32.767Z,0
2017-12-13T01:48:13.411Z,0
2017-12-13T01:48:53.819Z,0
2017-12-13T01:49:34.406Z,0
2017-12-13T01:50:14.987Z,0
2017-12-13T01:50:55.512Z,0
2017-12-13T01:51:36.148Z,0
2017-12-13T01:52:16.791Z,0
2017-12-13T01:52:57.367Z,0
2017-12-13T01:53:43.767Z,0
2017-12-13T01:54:24.357Z,0
2017-12-13T01:55:05.032Z,0
2017-12-13T01:55:45.546Z,0
2017-12-13T01:56:29.744Z,0
2017-12-13T01:57:10.490Z,0
2017-12-13T01:57:50.945Z,0
2017-12-13T01:58:31.547Z,0
2017-12-13T01:59:12.243Z,0
2017-12-13T01:59:52.782Z,0
2017-12-13T02:00:36.742Z,0
2017-12-13T02:01:17.368Z,0
2017-12-13T02:01:57.863Z,0
2017-12-13T02:02:38.566Z,0
2017-12-13T02:03:19.127Z,0
2017-12-13T02:03:59.666Z,0
2017-12-13T02:04:40.244Z,0
2017-12-13T02:05:20.795Z,0
2017-12-13T02:06:01.394Z,0
2017-12-13T02:06:41.969Z,0
2017-12-13T02:07:22.561Z,0
2017-12-13T02:08:03.173Z,0
2017-12-13T02:08:43.789Z,0
2017-12-13T02:09:24.352Z,0
2017-12-13T02:10:04.960Z,0
2017-12-13T02:10:45.469Z,0
2017-12-13T02:11:26.027Z,0
2017-12-13T02:12:06.574Z,0
2017-12-13T02:12:47.216Z,0
2017-12-13T02:13:27.627Z,0
2017-12-13T02:14:11.028Z,0
2017-12-13T02:14:52.457Z,0
2017-12-13T02:15:33.053Z,0
2017-12-13T02:16:13.560Z,0
2017-12-13T02:16:55.337Z,0
2017-12-13T02:17:38.017Z,0
2017-12-13T02:18:18.661Z,0
2017-12-13T02:18:59.248Z,0
2017-12-13T02:19:39.781Z,0
2017-12-13T02:20:20.350Z,0
2017-12-13T02:21:01.036Z,0
2017-12-13T02:27:35.231Z,0
2017-12-13T02:28:19.278Z,0
2017-12-13T02:28:59.714Z,0
2017-12-13T02:29:40.034Z,0
2017-12-13T02:30:20.412Z,0
2017-12-13T02:31:00.819Z,0
2017-12-13T02:31:41.371Z,0
2017-12-13T02:32:21.813Z,0
2017-12-13T02:33:02.159Z,0
2017-12-13T02:33:42.610Z,0
2017-12-13T02:34:23.013Z,0
2017-12-13T02:35:03.412Z,0
2017-12-13T02:35:43.805Z,0
2017-12-13T02:36:24.352Z,0
2017-12-13T02:37:04.868Z,0
2017-12-13T02:37:45.426Z,0
2017-12-13T02:38:25.873Z,0
2017-12-13T02:39:06.239Z,0
2017-12-13T02:39:46.694Z,0
2017-12-13T02:40:27.053Z,0
2017-12-13T02:41:07.759Z,0
2017-12-13T02:41:48.229Z,0
2017-12-13T02:42:28.510Z,0
2017-12-13T02:43:08.905Z,0
2017-12-13T02:43:49.335Z,0
2017-12-13T02:44:29.743Z,0
2017-12-13T02:45:10.169Z,0
2017-12-13T02:45:50.636Z,0
2017-12-13T02:46:31.795Z,0
2017-12-13T02:47:12.141Z,0
2017-12-13T02:47:52.616Z,0
2017-12-13T02:48:32.924Z,0
2017-12-13T02:49:13.406Z,0
2017-12-13T02:49:54.022Z,0
2017-12-13T02:50:34.269Z,0
2017-12-13T02:51:14.721Z,0
2017-12-13T02:51:55.114Z,0
2017-12-13T02:52:35.503Z,0
2017-12-13T02:53:16.760Z,0
2017-12-13T02:53:56.248Z,0
2017-12-13T02:54:36.786Z,0
2017-12-13T02:55:17.308Z,0
2017-12-13T02:55:57.620Z,0
2017-12-13T02:56:38.005Z,0
2017-12-13T02:57:18.616Z,0
2017-12-13T02:57:59.189Z,0
2017-12-13T02:58:39.696Z,0
2017-12-13T02:59:20.191Z,0
2017-12-13T03:00:00.516Z,0
2017-12-13T03:00:40.964Z,0
2017-12-13T03:01:21.520Z,0
2017-12-13T03:02:01.910Z,0
2017-12-13T03:02:42.566Z,0
2017-12-13T03:03:23.104Z,0
2017-12-13T03:04:03.391Z,0
2017-12-13T03:04:43.948Z,0
2017-12-13T03:05:24.178Z,0
2017-12-13T03:06:04.595Z,0
2017-12-13T03:06:45.075Z,0
2017-12-13T03:07:25.829Z,0
2017-12-13T03:08:06.125Z,0
2017-12-13T03:08:46.583Z,0
2017-12-13T03:09:27.088Z,0
2017-12-13T03:13:00.084Z,0
2017-12-13T03:13:48.307Z,0
2017-12-13T03:14:27.036Z,0
2017-12-13T03:15:07.413Z,0
2017-12-13T03:15:47.826Z,0
2017-12-13T03:16:28.369Z,0
2017-12-13T03:17:09.126Z,0
2017-12-13T03:17:49.500Z,0
2017-12-13T03:18:30.725Z,0
2017-12-13T03:19:10.457Z,0
2017-12-13T03:19:50.988Z,0
2017-12-13T03:20:31.427Z,0
2017-12-13T03:21:11.807Z,0
2017-12-13T03:21:52.213Z,0
2017-12-13T03:22:34.660Z,0
2017-12-13T03:23:13.246Z,0
2017-12-13T03:23:53.787Z,0
2017-12-13T03:24:34.177Z,0
2017-12-13T03:25:14.561Z,0
2017-12-13T03:25:54.963Z,0
2017-12-13T03:26:35.485Z,0
2017-12-13T03:27:15.781Z,0
2017-12-13T03:27:56.353Z,0
2017-12-13T03:28:36.894Z,0
2017-12-13T03:31:11.579Z,0
2017-12-13T03:31:55.394Z,0
2017-12-13T03:32:35.779Z,0
2017-12-13T03:33:16.247Z,0
2017-12-13T03:33:56.590Z,0
2017-12-13T03:34:37.303Z,0
2017-12-13T03:35:17.840Z,0
2017-12-13T03:35:58.244Z,0
2017-12-13T03:36:38.797Z,0
2017-12-13T03:37:19.105Z,0
2017-12-13T03:37:59.667Z,0
2017-12-13T03:38:40.092Z,0
2017-12-13T03:39:20.479Z,0
2017-12-13T03:40:01.903Z,0
2017-12-13T03:40:42.181Z,0
2017-12-13T03:41:22.517Z,0
2017-12-13T03:42:03.006Z,0
2017-12-13T03:42:43.346Z,0
2017-12-13T03:43:23.709Z,0
2017-12-13T03:44:04.126Z,0
2017-12-13T03:44:44.535Z,0
2017-12-13T03:45:24.937Z,0
2017-12-13T03:46:05.352Z,0
2017-12-13T03:46:45.724Z,0
2017-12-13T03:47:26.125Z,0
2017-12-13T03:48:06.741Z,0
2017-12-13T03:48:47.081Z,0
2017-12-13T03:49:27.533Z,0
2017-12-13T03:50:08.047Z,0
2017-12-13T03:50:48.300Z,0
2017-12-13T03:51:28.709Z,0
2017-12-13T03:52:09.171Z,0
2017-12-13T03:52:49.548Z,0
2017-12-13T03:53:29.949Z,0
2017-12-13T03:54:10.317Z,0
2017-12-13T03:54:50.759Z,0
2017-12-13T03:55:31.215Z,0
2017-12-13T03:56:11.619Z,0
2017-12-13T03:56:52.033Z,0
2017-12-13T03:57:32.407Z,0
2017-12-13T03:58:13.125Z,0
2017-12-13T03:58:53.506Z,0
2017-12-13T03:59:33.875Z,0
2017-12-13T04:00:14.228Z,0
2017-12-13T04:00:54.694Z,0
2017-12-13T04:01:35.409Z,0
2017-12-13T04:42:18.272Z,0
2017-12-13T04:42:58.625Z,0
2017-12-13T04:43:38.976Z,0
2017-12-13T04:44:19.788Z,0
2017-12-13T04:46:32.290Z,0
2017-12-13T04:47:12.826Z,0
2017-12-13T04:47:53.384Z,0
2017-12-13T04:48:33.648Z,0
2017-12-13T04:49:14.061Z,0
2017-12-13T04:49:54.949Z,0
2017-12-13T04:50:35.255Z,0
2017-12-13T04:51:15.884Z,0
2017-12-13T04:51:56.069Z,0
2017-12-13T04:52:36.781Z,0
2017-12-13T04:53:17.159Z,0
2017-12-13T04:53:57.475Z,0
2017-12-13T04:54:37.943Z,0
2017-12-13T04:55:18.350Z,0
2017-12-13T04:55:58.727Z,0
2017-12-13T04:56:39.170Z,0
2017-12-13T04:57:19.590Z,0
2017-12-13T04:57:59.990Z,0
2017-12-13T04:58:40.455Z,0
2017-12-13T04:59:20.843Z,0
2017-12-13T05:00:01.260Z,0
2017-12-13T05:00:42.734Z,0
2017-12-13T05:01:22.815Z,0
2017-12-13T05:02:03.218Z,0
2017-12-13T05:02:44.360Z,0
2017-12-13T05:03:24.748Z,0
2017-12-13T05:04:05.189Z,0
2017-12-13T05:04:45.554Z,0
2017-12-13T05:05:26.020Z,0
2017-12-13T05:06:06.425Z,0
2017-12-13T05:06:47.072Z,0
2017-12-13T05:07:27.359Z,0
2017-12-13T05:08:07.701Z,0
2017-12-13T05:08:48.158Z,0
2017-12-13T05:09:28.952Z,0
2017-12-13T05:10:09.458Z,0
2017-12-13T05:10:49.827Z,0
2017-12-13T05:11:30.520Z,0
2017-12-13T05:12:11.254Z,0
2017-12-13T05:12:51.672Z,0
2017-12-13T05:13:32.555Z,0
2017-12-13T05:14:13.137Z,0
2017-12-13T05:14:53.481Z,0
2017-12-13T05:15:33.893Z,0
2017-12-13T05:16:14.281Z,0
2017-12-13T05:16:54.682Z,0
2017-12-13T05:17:35.145Z,0
2017-12-13T05:18:15.480Z,0
2017-12-13T05:18:55.866Z,0
2017-12-13T05:19:37.196Z,0
2017-12-13T05:20:17.793Z,0
2017-12-13T05:20:58.101Z,0
2017-12-13T05:24:14.723Z,0
2017-12-13T05:25:02.110Z,0
2017-12-13T05:30:56.293Z,0
2017-12-13T05:31:39.131Z,0
2017-12-13T05:32:19.925Z,0
2017-12-13T05:33:00.312Z,0
2017-12-13T05:33:40.750Z,0
2017-12-13T05:34:21.112Z,0
2017-12-13T05:35:01.555Z,0
2017-12-13T05:35:41.953Z,0
2017-12-13T05:36:22.412Z,0
2017-12-13T05:37:02.939Z,0
2017-12-13T05:37:43.304Z,0
2017-12-13T05:38:23.685Z,0
2017-12-13T05:39:04.097Z,0
2017-12-13T05:39:44.516Z,0
2017-12-13T05:40:24.958Z,0
2017-12-13T05:41:05.376Z,0
2017-12-13T05:41:45.852Z,0
2017-12-13T05:42:26.261Z,0
2017-12-13T05:43:06.737Z,0
2017-12-13T05:43:47.051Z,0
2017-12-13T05:44:27.454Z,0
2017-12-13T05:45:07.840Z,0
2017-12-13T05:45:48.417Z,0
2017-12-13T05:46:28.899Z,0
2017-12-13T05:47:09.208Z,0
2017-12-13T05:47:49.616Z,0
2017-12-13T05:48:30.029Z,0
2017-12-13T05:49:10.474Z,0
2017-12-13T05:49:50.829Z,0
2017-12-13T05:50:31.207Z,0
2017-12-13T05:51:11.596Z,0
2017-12-13T05:51:52.108Z,0
2017-12-13T05:52:32.701Z,0
2017-12-13T05:53:13.028Z,0
2017-12-13T05:55:17.601Z,0
2017-12-13T05:55:58.225Z,0
2017-12-13T05:56:38.591Z,0
2017-12-13T05:57:19.312Z,0
2017-12-13T05:58:00.256Z,0
2017-12-13T05:58:41.676Z,0
2017-12-13T05:59:22.395Z,0
2017-12-13T06:00:03.134Z,0
2017-12-13T06:00:44.245Z,0
2017-12-13T06:01:24.810Z,0
2017-12-13T06:02:05.145Z,0
2017-12-13T06:02:45.635Z,0
2017-12-13T06:03:26.115Z,0
2017-12-13T06:04:06.473Z,0
2017-12-13T06:04:46.826Z,0
2017-12-13T06:05:27.253Z,0
2017-12-13T06:06:07.638Z,0
2017-12-13T06:06:48.131Z,0
2017-12-13T06:07:28.490Z,0
2017-12-13T06:08:08.918Z,0
2017-12-13T06:08:49.304Z,0
2017-12-13T06:09:29.786Z,0
2017-12-13T06:10:10.242Z,0
2017-12-13T06:10:50.654Z,0
2017-12-13T06:11:31.071Z,0
2017-12-13T06:12:11.398Z,0
2017-12-13T06:12:51.829Z,0
2017-12-13T06:13:32.198Z,0
2017-12-13T06:14:12.594Z,0
2017-12-13T06:14:52.998Z,0
2017-12-13T06:15:33.579Z,0
2017-12-13T06:16:13.937Z,0
2017-12-13T06:16:54.361Z,0
2017-12-13T06:17:34.727Z,0
2017-12-13T06:18:15.102Z,0
2017-12-13T06:18:55.527Z,0
2017-12-13T06:19:35.883Z,0
2017-12-13T06:20:16.295Z,0
2017-12-13T06:20:56.649Z,0
2017-12-13T06:21:37.061Z,0
2017-12-13T06:22:17.490Z,0
2017-12-13T06:22:57.879Z,0
2017-12-13T06:23:38.258Z,0
2017-12-13T06:24:18.873Z,0
2017-12-13T06:24:59.582Z,0
2017-12-13T06:25:40.178Z,0
2017-12-13T06:26:20.707Z,0
2017-12-13T06:27:01.176Z,0
2017-12-13T06:27:41.690Z,0
2017-12-13T06:28:22.293Z,0
2017-12-13T06:29:02.736Z,0
2017-12-13T06:29:43.249Z,0
2017-12-13T06:30:23.805Z,0
2017-12-13T06:31:04.008Z,0
2017-12-13T06:31:44.478Z,0
2017-12-13T06:32:24.827Z,0
2017-12-13T06:33:05.218Z,0
2017-12-13T06:33:45.637Z,0
2017-12-13T06:34:26.006Z,0
2017-12-13T06:35:06.380Z,0
2017-12-13T06:35:46.812Z,0
2017-12-13T06:36:27.184Z,0
2017-12-13T06:37:07.618Z,0
2017-12-13T06:37:48.015Z,0
2017-12-13T06:38:28.424Z,0
2017-12-13T06:39:08.821Z,0
2017-12-13T06:39:49.381Z,0
2017-12-13T06:40:29.797Z,0
2017-12-13T06:41:10.119Z,0
2017-12-13T06:41:50.531Z,0
2017-12-13T06:42:30.942Z,0
2017-12-13T06:43:11.288Z,0
2017-12-13T06:43:51.810Z,0
2017-12-13T06:44:33.279Z,0
2017-12-13T06:45:13.861Z,0
2017-12-13T06:45:56.175Z,0
2017-12-13T06:46:36.864Z,0
2017-12-13T06:47:17.713Z,0
2017-12-13T06:47:58.418Z,0
2017-12-13T06:48:38.897Z,0
2017-12-13T06:49:20.081Z,0
2017-12-13T06:49:59.967Z,0
2017-12-13T06:50:40.473Z,0
2017-12-13T06:51:20.935Z,0
2017-12-13T06:52:01.303Z,0
2017-12-13T06:52:41.763Z,0
2017-12-13T06:53:37.249Z,0
2017-12-13T06:54:17.625Z,0
2017-12-13T06:54:57.972Z,0
2017-12-13T06:55:38.404Z,0
2017-12-13T06:56:18.828Z,0
2017-12-13T06:56:59.316Z,4
2017-12-13T06:57:39.762Z,4
2017-12-13T06:58:20.117Z,0
2017-12-13T06:59:00.567Z,0
2017-12-13T06:59:41.073Z,0
2017-12-13T07:00:21.408Z,0
2017-12-13T07:01:01.817Z,0
2017-12-13T07:01:42.287Z,4
2017-12-13T07:02:22.596Z,4
2017-12-13T07:03:03.056Z,0
2017-12-13T07:03:43.541Z,0
2017-12-13T07:04:23.956Z,0
2017-12-13T07:05:04.448Z,4
2017-12-13T07:05:44.855Z,4
2017-12-13T07:06:25.462Z,0
2017-12-13T07:07:05.770Z,0
2017-12-13T07:07:46.205Z,4
2017-12-13T07:08:27.906Z,4
2017-12-13T07:09:07.976Z,4
2017-12-13T07:09:48.993Z,0
2017-12-13T07:10:30.469Z,4
2017-12-13T07:11:11.761Z,4
2017-12-13T07:11:52.658Z,8
2017-12-13T07:12:33.083Z,4
2017-12-13T07:13:13.990Z,8
2017-12-13T07:13:54.180Z,4
2017-12-13T07:14:35.168Z,4
2017-12-13T07:15:16.670Z,8
2017-12-13T07:15:56.723Z,8
2017-12-13T07:16:37.407Z,8
2017-12-13T07:17:18.286Z,8
2017-12-13T07:17:59.572Z,8
2017-12-13T07:18:39.657Z,8
2017-12-13T07:19:20.052Z,12
2017-12-13T07:20:00.422Z,12
2017-12-13T07:20:41.083Z,12
2017-12-13T07:21:21.424Z,12
2017-12-13T07:22:01.878Z,12
2017-12-13T07:22:42.404Z,16
2017-12-13T07:23:22.837Z,12
2017-12-13T07:25:18.851Z,16
2017-12-13T07:25:59.274Z,16
2017-12-13T07:26:39.648Z,16
2017-12-13T07:27:20.091Z,16
2017-12-13T07:28:00.480Z,20
2017-12-13T07:28:40.829Z,16
2017-12-13T07:29:21.226Z,20
2017-12-13T07:30:01.693Z,24
2017-12-13T07:30:42.082Z,24
2017-12-13T07:31:22.620Z,28
2017-12-13T07:32:03.021Z,32
2017-12-13T07:32:43.398Z,28
2017-12-13T07:33:23.875Z,32
2017-12-13T07:34:04.333Z,32
2017-12-13T07:34:44.719Z,32
2017-12-13T07:35:25.054Z,28
2017-12-13T07:36:05.470Z,32
2017-12-13T07:36:45.937Z,32
2017-12-13T07:37:26.364Z,28
2017-12-13T07:38:06.810Z,24
2017-12-13T07:38:47.281Z,24
2017-12-13T07:39:27.658Z,28
2017-12-13T07:40:08.100Z,24
2017-12-13T07:40:48.678Z,28
2017-12-13T07:41:29.079Z,28
2017-12-13T07:42:09.499Z,28
2017-12-13T07:42:49.941Z,32
2017-12-13T07:43:30.247Z,36
2017-12-13T07:44:10.691Z,44
2017-12-13T07:44:51.101Z,48
2017-12-13T07:45:31.432Z,48
2017-12-13T07:46:12.135Z,56
2017-12-13T07:46:52.523Z,56
2017-12-13T07:47:33.008Z,56
2017-12-13T07:48:13.742Z,64
2017-12-13T07:48:54.308Z,64
2017-12-13T07:49:34.872Z,72
2017-12-13T07:50:15.261Z,76
2017-12-13T07:50:55.765Z,72
2017-12-13T07:51:36.636Z,80
2017-12-13T07:52:17.082Z,84
2017-12-13T07:52:57.650Z,84
2017-12-13T07:53:38.518Z,88
2017-12-13T07:54:18.988Z,92
2017-12-13T07:54:59.569Z,96
2017-12-13T07:55:40.210Z,104
2017-12-13T07:56:20.467Z,104
2017-12-13T07:57:00.913Z,112
2017-12-13T07:57:41.301Z,112
2017-12-13T07:58:21.775Z,112
2017-12-13T07:59:02.241Z,128
2017-12-13T07:59:42.689Z,132
2017-12-13T08:00:23.148Z,132
2017-12-13T08:04:25.124Z,120
2017-12-13T08:05:06.194Z,120
2017-12-13T08:05:47.586Z,124
2017-12-13T08:06:28.157Z,128
2017-12-13T08:07:09.087Z,132
2017-12-13T08:07:49.368Z,132
2017-12-13T08:08:29.920Z,140
2017-12-13T08:09:10.569Z,140
2017-12-13T08:09:51.353Z,148
2017-12-13T08:10:32.624Z,152
2017-12-13T08:11:12.809Z,160
2017-12-13T08:11:53.446Z,164
2017-12-13T08:12:34.902Z,172
2017-12-13T08:13:15.533Z,180
2017-12-13T08:13:56.410Z,184
2017-12-13T08:14:39.372Z,180
2017-12-13T08:15:20.229Z,176
2017-12-13T08:16:01.610Z,168
2017-12-13T08:16:42.376Z,164
2017-12-13T08:17:23.134Z,164
2017-12-13T08:18:04.740Z,160
2017-12-13T08:18:45.684Z,156
2017-12-13T08:19:28.203Z,156
2017-12-13T08:20:08.226Z,148
2017-12-13T08:20:48.850Z,148
2017-12-13T08:21:30.280Z,148
2017-12-13T08:22:11.646Z,148
2017-12-13T08:22:51.529Z,148
2017-12-13T08:23:32.975Z,148
2017-12-13T08:24:13.443Z,148
2017-12-13T08:24:54.269Z,152
2017-12-13T08:25:34.779Z,156
2017-12-13T08:26:15.745Z,164
2017-12-13T08:26:56.995Z,164
2017-12-13T08:27:38.125Z,168
2017-12-13T08:28:17.954Z,164
2017-12-13T08:28:58.934Z,164
2017-12-13T08:29:39.539Z,164
2017-12-13T08:30:20.087Z,164
2017-12-13T08:31:00.820Z,164
2017-12-13T08:31:42.207Z,164
2017-12-13T08:32:22.865Z,168
2017-12-13T08:33:03.407Z,168
2017-12-13T08:33:43.980Z,160
2017-12-13T08:34:25.236Z,160
2017-12-13T08:35:05.470Z,156
2017-12-13T08:35:46.243Z,144
2017-12-13T08:36:26.652Z,136
2017-12-13T08:37:07.126Z,132
2017-12-13T08:37:47.738Z,124
2017-12-13T08:38:28.008Z,120
2017-12-13T08:39:08.943Z,104
2017-12-13T08:39:49.337Z,120
2017-12-13T08:40:29.839Z,112
2017-12-13T08:41:10.238Z,120
2017-12-13T08:41:50.648Z,116
2017-12-13T08:42:31.211Z,120
2017-12-13T08:43:11.908Z,124
2017-12-13T08:43:52.915Z,124
2017-12-13T08:44:34.291Z,132
2017-12-13T08:45:14.515Z,120
2017-12-13T08:45:55.083Z,112
2017-12-13T08:46:35.395Z,104
2017-12-13T08:47:16.613Z,104
2017-12-13T08:47:57.527Z,108
2017-12-13T08:48:39.331Z,112
2017-12-13T08:49:19.808Z,104
2017-12-13T08:50:00.853Z,104
2017-12-13T08:50:41.998Z,104
2017-12-13T08:51:22.821Z,108
2017-12-13T08:52:05.145Z,116
2017-12-13T08:52:45.798Z,116
2017-12-13T08:53:27.370Z,116
2017-12-13T08:54:09.104Z,116
2017-12-13T08:54:49.991Z,128
2017-12-13T08:55:31.601Z,132
2017-12-13T08:56:12.643Z,140
2017-12-13T08:56:53.431Z,144
2017-12-13T08:57:35.843Z,140
2017-12-13T08:58:15.815Z,132
2017-12-13T08:58:57.180Z,132
2017-12-13T08:59:38.052Z,144
2017-12-13T09:00:18.483Z,152
2017-12-13T09:00:59.504Z,164
2017-12-13T09:01:40.643Z,172
2017-12-13T09:02:21.421Z,168
2017-12-13T09:03:02.642Z,188
2017-12-13T09:03:42.705Z,192
2017-12-13T09:04:23.724Z,180
2017-12-13T09:05:04.756Z,212
2017-12-13T09:05:45.773Z,220
2017-12-13T09:06:27.183Z,212
2017-12-13T09:07:07.714Z,224
2017-12-13T09:07:48.114Z,224
2017-12-13T09:08:28.679Z,220
2017-12-13T09:09:09.024Z,224
2017-12-13T09:09:49.598Z,216
2017-12-13T09:11:53.813Z,172
2017-12-13T09:12:34.900Z,148
2017-12-13T09:13:16.623Z,128
2017-12-13T09:13:57.164Z,120
2017-12-13T09:14:38.748Z,112
2017-12-13T09:15:19.989Z,108
2017-12-13T09:16:00.901Z,100
2017-12-13T09:16:41.904Z,96
2017-12-13T09:17:22.264Z,92
2017-12-13T09:18:04.388Z,88
2017-12-13T09:18:45.398Z,84
2017-12-13T09:19:27.682Z,80
2017-12-13T09:20:08.895Z,80
2017-12-13T09:20:50.222Z,72
2017-12-13T09:21:30.796Z,72
2017-12-13T09:22:12.156Z,68
2017-12-13T09:22:53.565Z,56
2017-12-13T09:23:35.664Z,56
2017-12-13T09:24:16.519Z,56
2017-12-13T09:24:57.358Z,56
2017-12-13T09:25:37.841Z,52
2017-12-13T09:26:18.884Z,56
2017-12-13T09:26:59.296Z,56
2017-12-13T09:27:40.234Z,56
2017-12-13T09:28:21.243Z,56
2017-12-13T09:31:45.995Z,64
2017-12-13T09:32:26.393Z,64
2017-12-13T09:33:06.915Z,68
2017-12-13T09:33:47.628Z,72
2017-12-13T09:34:28.135Z,68
2017-12-13T09:35:08.759Z,76
2017-12-13T09:35:49.179Z,76
2017-12-13T09:36:29.642Z,76
2017-12-13T09:37:10.621Z,84
2017-12-13T09:37:51.038Z,84
2017-12-13T09:38:31.421Z,88
2017-12-13T09:39:11.770Z,96
2017-12-13T09:39:52.201Z,100
2017-12-13T09:40:32.707Z,100
2017-12-13T09:41:13.043Z,108
2017-12-13T09:41:53.404Z,112
2017-12-13T09:42:33.961Z,124
2017-12-13T09:43:15.205Z,128
2017-12-13T09:43:55.512Z,132
2017-12-13T09:44:35.952Z,144
2017-12-13T09:45:16.519Z,144
2017-12-13T09:45:56.791Z,152
2017-12-13T09:46:37.179Z,156
2017-12-13T09:47:17.651Z,156
2017-12-13T09:47:58.233Z,156
2017-12-13T09:48:38.649Z,160
2017-12-13T09:49:19.113Z,164
2017-12-13T09:49:59.541Z,164
2017-12-13T09:50:39.962Z,164
2017-12-13T09:51:20.571Z,160
2017-12-13T09:52:00.963Z,164
2017-12-13T09:52:41.520Z,156
2017-12-13T09:53:21.873Z,164
2017-12-13T09:54:02.150Z,156
2017-12-13T09:54:42.964Z,148
2017-12-13T09:55:23.622Z,152
2017-12-13T09:56:04.030Z,148
2017-12-13T09:56:44.642Z,152
2017-12-13T09:57:25.061Z,144
2017-12-13T09:58:05.625Z,156
2017-12-13T09:58:46.275Z,160
2017-12-13T09:59:26.552Z,140
2017-12-13T10:00:07.051Z,164
2017-12-13T10:00:47.742Z,172
2017-12-13T10:01:28.181Z,176
2017-12-13T10:02:08.459Z,176
2017-12-13T10:02:51.393Z,180
2017-12-13T10:03:33.227Z,180
2017-12-13T10:41:49.358Z,220
2017-12-13T10:42:29.828Z,220
2017-12-13T10:43:10.272Z,228
2017-12-13T10:43:50.876Z,228
2017-12-13T10:44:31.386Z,240
2017-12-13T10:45:11.643Z,244
2017-12-13T10:45:52.150Z,240
2017-12-13T10:46:32.573Z,244
2017-12-13T10:47:12.928Z,252
2017-12-13T10:47:53.394Z,256
2017-12-13T10:48:34.524Z,252
2017-12-13T10:49:14.521Z,252
2017-12-13T10:49:55.641Z,244
2017-12-13T10:50:36.626Z,244
2017-12-13T10:51:17.538Z,244
2017-12-13T10:51:58.692Z,240
2017-12-13T10:52:39.802Z,236
2017-12-13T10:53:21.225Z,236
2017-12-13T10:54:01.941Z,244
2017-12-13T10:54:44.039Z,248
2017-12-13T10:55:31.457Z,260
2017-12-13T10:56:13.548Z,264
2017-12-13T10:56:56.025Z,268
2017-12-13T10:57:37.020Z,272
2017-12-13T10:58:18.156Z,268
2017-12-13T11:00:38.657Z,264
2017-12-13T11:01:19.294Z,256
2017-12-13T11:02:00.395Z,252
2017-12-13T11:02:41.089Z,244
2017-12-13T11:03:21.761Z,244
2017-12-13T11:04:03.166Z,244
2017-12-13T11:04:44.655Z,244
2017-12-13T11:05:24.616Z,232
2017-12-13T11:06:05.299Z,228
2017-12-13T11:06:45.701Z,236
2017-12-13T11:07:27.880Z,248
2017-12-13T11:08:08.504Z,268
2017-12-13T11:08:50.223Z,276
2017-12-13T11:09:30.624Z,304
2017-12-13T11:10:11.128Z,296
2017-12-13T11:10:51.805Z,308
2017-12-13T11:11:33.423Z,320
2017-12-13T11:12:14.645Z,316
2017-12-13T11:12:55.068Z,332
2017-12-13T11:13:35.572Z,372
2017-12-13T11:14:16.136Z,396
2017-12-13T11:14:57.419Z,368
2017-12-13T11:15:38.193Z,356
2017-12-13T11:16:18.554Z,356
2017-12-13T11:16:59.432Z,352
2017-12-13T11:17:45.458Z,356
2017-12-13T11:18:25.327Z,356
2017-12-13T11:19:05.975Z,332
2017-12-13T11:19:46.333Z,308
2017-12-13T11:20:27.014Z,296
2017-12-13T11:21:08.319Z,296
2017-12-13T11:21:48.782Z,280
2017-12-13T11:22:29.226Z,284
2017-12-13T11:23:09.722Z,280
2017-12-13T11:23:50.168Z,276
2017-12-13T11:24:30.821Z,276
2017-12-13T11:25:11.219Z,276
2017-12-13T11:25:51.621Z,288
2017-12-13T11:26:32.304Z,292
2017-12-13T11:27:12.943Z,288
2017-12-13T11:27:53.522Z,284
2017-12-13T11:28:34.831Z,272
2017-12-13T11:29:15.252Z,268
2017-12-13T11:29:55.736Z,264
2017-12-13T11:30:36.269Z,268
2017-12-13T11:31:16.677Z,264
2017-12-13T11:31:57.224Z,256
2017-12-13T11:32:38.932Z,260
2017-12-13T11:33:21.242Z,264
2017-12-13T11:34:02.374Z,264
2017-12-13T11:34:44.126Z,264
2017-12-13T11:35:26.407Z,264
2017-12-13T11:36:08.970Z,268
2017-12-13T11:36:50.153Z,280
2017-12-13T11:37:31.328Z,312
2017-12-13T11:40:26.002Z,332
2017-12-13T11:41:07.417Z,332